createdAt,value
2022-07-28T00:00:16.793Z,17.40
2022-07-28T00:02:44.327Z,17.30
2022-07-28T00:05:12.141Z,17.40
2022-07-28T00:07:39.814Z,17.40
2022-07-28T00:10:08.144Z,17.30
2022-07-28T00:12:35.596Z,17.30
2022-07-28T00:15:03.808Z,17.30
2022-07-28T00:17:31.299Z,17.30
2022-07-28T00:19:58.775Z,17.30
2022-07-28T00:22:26.352Z,17.30
2022-07-28T00:24:53.816Z,17.30
2022-07-28T00:27:21.360Z,17.30
2022-07-28T00:29:51.101Z,17.30
2022-07-28T00:32:20.675Z,17.30
2022-07-28T00:34:48.569Z,17.30
2022-07-28T00:37:16.051Z,17.20
2022-07-28T00:39:44.003Z,17.30
2022-07-28T00:42:12.406Z,17.20
2022-07-28T00:44:42.047Z,17.20
2022-07-28T00:47:09.729Z,17.20
2022-07-28T00:49:37.196Z,17.20
2022-07-28T00:52:05.940Z,17.20
2022-07-28T00:54:33.759Z,17.20
2022-07-28T00:57:01.240Z,17.10
2022-07-28T00:59:28.688Z,17.10
2022-07-28T01:01:56.605Z,17.10
2022-07-28T01:04:25.724Z,17.10
2022-07-28T01:07:32.871Z,17.00
2022-07-28T01:10:45.158Z,17.00
2022-07-28T01:13:33.117Z,17.00
2022-07-28T01:16:06.229Z,16.90
2022-07-28T01:19:04.522Z,16.90
2022-07-28T01:21:36.493Z,16.90
2022-07-28T01:24:21.795Z,16.90
2022-07-28T01:26:55.214Z,16.90
2022-07-28T01:29:50.190Z,16.80
2022-07-28T01:32:22.115Z,16.80
2022-07-28T01:35:19.629Z,16.80
2022-07-28T01:37:53.765Z,16.70
2022-07-28T01:40:25.243Z,16.70
2022-07-28T01:42:56.573Z,16.70
2022-07-28T01:45:24.950Z,16.70
2022-07-28T01:47:55.562Z,16.70
2022-07-28T01:50:25.709Z,16.70
2022-07-28T01:52:55.759Z,16.70
2022-07-28T01:55:25.107Z,16.60
2022-07-28T01:57:55.587Z,16.60
2022-07-28T02:00:26.004Z,16.60
2022-07-28T02:02:57.097Z,16.60
2022-07-28T02:05:26.617Z,16.60
2022-07-28T02:07:56.325Z,16.60
2022-07-28T02:10:25.176Z,16.60
2022-07-28T02:12:53.424Z,16.60
2022-07-28T02:15:22.200Z,16.60
2022-07-28T02:17:51.479Z,16.60
2022-07-28T02:20:20.598Z,16.60
2022-07-28T02:22:51.596Z,16.60
2022-07-28T02:25:21.019Z,16.60
2022-07-28T02:28:01.285Z,16.60
2022-07-28T02:30:47.273Z,16.60
2022-07-28T02:33:22.370Z,16.60
2022-07-28T02:36:15.468Z,16.70
2022-07-28T02:38:49.589Z,16.60
2022-07-28T02:41:25.773Z,16.70
2022-07-28T02:43:56.819Z,16.70
2022-07-28T02:46:25.841Z,16.70
2022-07-28T02:49:04.932Z,16.70
2022-07-28T02:51:34.833Z,16.70
2022-07-28T02:54:03.626Z,16.70
2022-07-28T02:56:32.152Z,16.70
2022-07-28T02:59:00.968Z,16.70
2022-07-28T03:01:29.012Z,16.70
2022-07-28T03:03:58.289Z,16.70
2022-07-28T03:06:26.486Z,16.70
2022-07-28T03:08:57.402Z,16.70
2022-07-28T03:11:25.092Z,16.70
2022-07-28T03:13:52.496Z,16.70
2022-07-28T03:16:19.961Z,16.70
2022-07-28T03:18:47.426Z,16.70
2022-07-28T03:21:15.410Z,16.70
2022-07-28T03:23:47.881Z,16.70
2022-07-28T03:26:41.183Z,16.70
2022-07-28T03:29:10.872Z,16.70
2022-07-28T03:31:41.281Z,16.70
2022-07-28T03:34:11.950Z,16.70
2022-07-28T03:36:43.120Z,16.70
2022-07-28T03:39:12.084Z,16.70
2022-07-28T03:41:42.314Z,16.70
2022-07-28T03:44:12.400Z,16.60
2022-07-28T03:46:46.595Z,16.70
2022-07-28T03:49:14.215Z,16.70
2022-07-28T03:51:41.712Z,16.70
2022-07-28T03:54:09.364Z,16.70
2022-07-28T03:56:36.830Z,16.70
2022-07-28T03:59:04.312Z,16.70
2022-07-28T04:01:31.791Z,16.70
2022-07-28T04:03:59.220Z,16.70
2022-07-28T04:06:26.638Z,16.70
2022-07-28T04:08:54.047Z,16.70
2022-07-28T04:11:21.482Z,16.70
2022-07-28T04:13:49.252Z,16.60
2022-07-28T04:16:16.693Z,16.70
2022-07-28T04:18:44.143Z,16.70
2022-07-28T04:21:11.684Z,16.70
2022-07-28T04:23:39.157Z,16.70
2022-07-28T04:26:06.669Z,16.70
2022-07-28T04:28:34.330Z,16.70
2022-07-28T04:31:01.882Z,16.70
2022-07-28T04:33:30.603Z,16.70
2022-07-28T04:35:58.133Z,16.70
2022-07-28T04:38:25.560Z,16.70
2022-07-28T04:40:53.084Z,16.80
2022-07-28T04:43:23.019Z,16.80
2022-07-28T04:45:54.600Z,16.80
2022-07-28T04:48:23.653Z,16.80
2022-07-28T04:50:53.036Z,16.80
2022-07-28T04:53:22.317Z,16.80
2022-07-28T04:55:51.620Z,16.80
2022-07-28T04:58:19.589Z,16.80
2022-07-28T05:00:50.339Z,16.80
2022-07-28T05:03:19.191Z,16.80
2022-07-28T05:05:49.190Z,16.80
2022-07-28T05:08:26.047Z,16.80
2022-07-28T05:10:56.050Z,16.80
2022-07-28T05:13:24.299Z,16.90
2022-07-28T05:15:51.729Z,16.90
2022-07-28T05:18:19.095Z,16.90
2022-07-28T05:20:46.578Z,16.90
2022-07-28T05:23:15.028Z,16.90
2022-07-28T05:25:42.481Z,16.90
2022-07-28T05:28:09.837Z,16.90
2022-07-28T05:30:38.323Z,16.90
2022-07-28T05:33:05.814Z,16.90
2022-07-28T05:35:33.260Z,16.90
2022-07-28T05:38:00.724Z,17.00
2022-07-28T05:40:28.101Z,17.00
2022-07-28T05:42:55.506Z,17.00
2022-07-28T05:45:22.972Z,17.00
2022-07-28T05:47:52.781Z,17.00
2022-07-28T05:50:22.377Z,17.00
2022-07-28T05:52:51.209Z,17.10
2022-07-28T05:55:19.439Z,17.10
2022-07-28T05:57:47.305Z,17.20
2022-07-28T06:00:16.829Z,17.20
2022-07-28T06:02:45.932Z,17.30
2022-07-28T06:05:13.922Z,17.40
2022-07-28T06:07:42.836Z,17.40
2022-07-28T06:10:13.643Z,17.50
2022-07-28T06:12:45.693Z,17.60
2022-07-28T06:15:15.015Z,17.60
2022-07-28T06:17:43.085Z,17.70
2022-07-28T06:20:11.750Z,17.70
2022-07-28T06:22:53.842Z,17.80
2022-07-28T06:25:23.481Z,17.80
2022-07-28T06:27:56.443Z,17.90
2022-07-28T06:30:24.290Z,18.00
2022-07-28T06:32:53.834Z,18.10
2022-07-28T06:35:21.659Z,18.00
2022-07-28T06:37:51.893Z,18.10
2022-07-28T06:40:22.700Z,18.10
2022-07-28T06:42:51.561Z,18.10
2022-07-28T06:45:21.211Z,18.10
2022-07-28T06:47:53.345Z,18.20
2022-07-28T06:50:25.932Z,18.20
2022-07-28T06:52:56.654Z,18.30
2022-07-28T06:55:24.158Z,18.30
2022-07-28T06:57:51.902Z,18.40
2022-07-28T07:00:19.385Z,18.40
2022-07-28T07:02:46.865Z,18.50
2022-07-28T07:05:14.521Z,18.50
2022-07-28T07:07:43.558Z,18.50
2022-07-28T07:10:11.913Z,18.40
2022-07-28T07:12:39.603Z,18.40
2022-07-28T07:15:07.996Z,18.30
2022-07-28T07:17:37.576Z,18.30
2022-07-28T07:20:09.477Z,18.30
2022-07-28T07:22:42.872Z,18.30
2022-07-28T07:25:12.046Z,18.30
2022-07-28T07:27:39.627Z,18.40
2022-07-28T07:30:08.812Z,18.40
2022-07-28T07:32:36.842Z,18.50
2022-07-28T07:35:05.281Z,18.60
2022-07-28T07:37:32.838Z,18.50
2022-07-28T07:40:01.457Z,18.60
2022-07-28T07:42:29.222Z,18.60
2022-07-28T07:44:56.779Z,18.70
2022-07-28T07:47:24.629Z,18.70
2022-07-28T07:49:52.166Z,18.70
2022-07-28T07:52:19.771Z,18.80
2022-07-28T07:54:47.327Z,18.90
2022-07-28T07:57:14.846Z,18.90
2022-07-28T07:59:42.406Z,18.90
2022-07-28T08:02:10.030Z,18.90
2022-07-28T08:04:40.384Z,18.90
2022-07-28T08:07:08.053Z,18.90
2022-07-28T08:09:35.508Z,18.90
2022-07-28T08:12:03.198Z,18.90
2022-07-28T08:14:30.622Z,18.90
2022-07-28T08:16:59.339Z,18.90
2022-07-28T08:19:26.850Z,18.90
2022-07-28T08:21:55.473Z,18.90
2022-07-28T08:24:33.791Z,18.90
2022-07-28T08:27:03.220Z,18.90
2022-07-28T08:29:30.869Z,19.00
2022-07-28T08:31:58.389Z,19.00
2022-07-28T08:34:31.259Z,19.00
2022-07-28T08:37:05.973Z,19.10
2022-07-28T08:39:35.016Z,19.20
2022-07-28T08:42:06.800Z,19.20
2022-07-28T08:44:55.318Z,19.30
2022-07-28T08:47:23.271Z,19.30
2022-07-28T08:49:53.598Z,19.40
2022-07-28T08:52:24.283Z,19.50
2022-07-28T08:54:53.955Z,19.50
2022-07-28T08:57:27.872Z,19.50
2022-07-28T08:59:56.212Z,19.60
2022-07-28T09:02:28.952Z,19.60
2022-07-28T09:04:58.041Z,19.70
2022-07-28T09:07:26.740Z,19.80
2022-07-28T09:09:57.392Z,19.80
2022-07-28T09:12:30.200Z,19.90
2022-07-28T09:14:57.746Z,20.00
2022-07-28T09:17:25.235Z,20.00
2022-07-28T09:19:52.826Z,20.10
2022-07-28T09:22:20.240Z,20.20
2022-07-28T09:24:48.167Z,20.20
2022-07-28T09:27:15.973Z,20.30
2022-07-28T09:29:48.452Z,20.30
2022-07-28T09:32:19.121Z,20.40
2022-07-28T09:34:48.763Z,20.50
2022-07-28T09:37:26.854Z,20.50
2022-07-28T09:39:59.867Z,20.50
2022-07-28T09:42:50.177Z,20.60
2022-07-28T09:45:23.259Z,20.70
2022-07-28T09:48:10.245Z,20.80
2022-07-28T09:50:39.361Z,20.80
2022-07-28T09:53:27.315Z,20.90
2022-07-28T09:56:01.866Z,21.10
2022-07-28T09:58:30.524Z,21.20
2022-07-28T10:01:13.061Z,21.20
2022-07-28T10:03:42.855Z,21.20
2022-07-28T10:06:24.404Z,21.30
2022-07-28T10:08:53.335Z,21.40
2022-07-28T10:11:24.740Z,21.40
2022-07-28T10:14:02.652Z,21.60
2022-07-28T10:16:41.925Z,21.60
2022-07-28T10:19:09.841Z,21.60
2022-07-28T10:21:44.425Z,21.50
2022-07-28T10:24:21.314Z,21.60
2022-07-28T10:26:50.806Z,21.70
2022-07-28T10:29:21.668Z,21.90
2022-07-28T10:31:55.112Z,21.80
2022-07-28T10:34:24.677Z,22.00
2022-07-28T10:36:56.502Z,22.10
2022-07-28T10:39:28.189Z,22.10
2022-07-28T10:41:56.764Z,21.90
2022-07-28T10:44:24.901Z,22.00
2022-07-28T10:46:52.770Z,22.00
2022-07-28T10:49:21.652Z,22.00
2022-07-28T10:52:02.277Z,21.90
2022-07-28T10:54:57.154Z,21.80
2022-07-28T10:57:25.641Z,21.80
2022-07-28T11:00:24.385Z,21.80
2022-07-28T11:03:02.239Z,21.90
2022-07-28T11:05:42.573Z,21.90
2022-07-28T11:08:28.150Z,22.10
2022-07-28T11:11:06.797Z,22.10
2022-07-28T11:13:41.178Z,22.30
2022-07-28T11:16:15.615Z,22.50
2022-07-28T11:19:40.161Z,22.50
2022-07-28T11:22:28.044Z,22.70
2022-07-28T11:24:58.714Z,22.70
2022-07-28T11:27:43.171Z,22.60
2022-07-28T11:30:42.054Z,22.50
2022-07-28T11:33:09.577Z,22.50
2022-07-28T11:35:39.817Z,22.70
2022-07-28T11:38:09.234Z,22.80
2022-07-28T11:40:38.291Z,22.90
2022-07-28T11:43:36.495Z,22.90
2022-07-28T11:46:09.453Z,23.00
2022-07-28T11:48:44.852Z,23.30
2022-07-28T11:51:14.082Z,23.60
2022-07-28T11:53:44.272Z,23.50
2022-07-28T11:56:14.052Z,23.70
2022-07-28T11:58:43.057Z,24.00
2022-07-28T12:01:19.361Z,24.20
2022-07-28T12:03:50.360Z,23.90
2022-07-28T12:06:35.841Z,24.30
2022-07-28T12:09:06.175Z,24.30
2022-07-28T12:11:36.315Z,23.60
2022-07-28T12:14:07.102Z,23.40
2022-07-28T12:16:36.463Z,23.70
2022-07-28T12:19:05.571Z,24.00
2022-07-28T12:21:46.138Z,24.00
2022-07-28T12:24:20.383Z,24.00
2022-07-28T12:26:50.328Z,24.20
2022-07-28T12:29:19.541Z,24.10
2022-07-28T12:31:52.853Z,23.80
2022-07-28T12:34:24.386Z,23.70
2022-07-28T12:36:59.464Z,24.00
2022-07-28T12:39:27.174Z,24.40
2022-07-28T12:42:06.378Z,24.80
2022-07-28T12:44:42.354Z,24.70
2022-07-28T12:47:12.488Z,24.50
2022-07-28T12:49:44.176Z,24.30
2022-07-28T12:52:21.627Z,24.10
2022-07-28T12:54:54.854Z,24.20
2022-07-28T12:57:49.451Z,24.30
2022-07-28T13:00:23.609Z,24.80
2022-07-28T13:02:57.137Z,24.70
2022-07-28T13:05:28.684Z,24.50
2022-07-28T13:08:04.874Z,24.70
2022-07-28T13:10:32.871Z,24.90
2022-07-28T13:13:05.870Z,24.80
2022-07-28T13:15:33.923Z,24.70
2022-07-28T13:18:01.612Z,24.50
2022-07-28T13:20:29.120Z,24.30
2022-07-28T13:22:57.490Z,24.30
2022-07-28T13:25:25.054Z,24.50
2022-07-28T13:27:55.301Z,24.50
2022-07-28T13:30:23.642Z,24.80
2022-07-28T13:32:54.649Z,25.10
2022-07-28T13:35:22.833Z,24.80
2022-07-28T13:37:50.526Z,24.30
2022-07-28T13:40:17.997Z,24.00
2022-07-28T13:42:52.746Z,23.80
2022-07-28T13:45:24.368Z,24.10
2022-07-28T13:47:53.416Z,24.60
2022-07-28T13:50:21.325Z,24.60
2022-07-28T13:52:48.818Z,24.40
2022-07-28T13:55:19.771Z,23.90
2022-07-28T13:57:49.284Z,23.70
2022-07-28T14:00:18.600Z,23.80
2022-07-28T14:02:48.841Z,23.90
2022-07-28T14:05:16.539Z,24.20
2022-07-28T14:07:48.281Z,24.80
2022-07-28T14:10:18.397Z,25.20
2022-07-28T14:12:46.694Z,25.10
2022-07-28T14:15:14.620Z,25.30
2022-07-28T14:17:44.602Z,25.70
2022-07-28T14:20:14.883Z,25.60
2022-07-28T14:22:43.517Z,25.50
2022-07-28T14:25:19.439Z,25.50
2022-07-28T14:27:49.631Z,25.50
2022-07-28T14:30:17.526Z,26.00
2022-07-28T14:32:44.941Z,26.10
2022-07-28T14:35:12.618Z,25.70
2022-07-28T14:38:23.114Z,25.70
2022-07-28T14:40:27.983Z,25.20
2022-07-28T14:42:55.274Z,24.50
2022-07-28T14:45:22.824Z,24.20
2022-07-28T14:47:50.358Z,24.00
2022-07-28T14:50:18.088Z,23.90
2022-07-28T14:52:45.517Z,23.50
2022-07-28T14:55:13.315Z,23.30
2022-07-28T14:57:48.293Z,23.10
2022-07-28T15:00:23.262Z,22.80
2022-07-28T15:02:54.392Z,22.80
2022-07-28T15:05:23.099Z,23.20
2022-07-28T15:07:52.330Z,23.50
2022-07-28T15:10:20.781Z,23.50
2022-07-28T15:12:50.024Z,23.30
2022-07-28T15:15:17.717Z,23.20
2022-07-28T15:17:46.399Z,23.10
2022-07-28T15:20:13.875Z,23.00
2022-07-28T15:22:41.296Z,22.80
2022-07-28T15:25:09.747Z,22.80
2022-07-28T15:27:40.450Z,22.70
2022-07-28T15:30:11.455Z,22.60
2022-07-28T15:32:56.252Z,22.60
2022-07-28T15:35:26.060Z,22.80
2022-07-28T15:37:54.165Z,22.80
2022-07-28T15:40:22.321Z,22.70
2022-07-28T15:42:49.813Z,22.60
2022-07-28T15:45:17.506Z,22.70
2022-07-28T15:47:45.050Z,22.70
2022-07-28T15:50:12.476Z,22.70
2022-07-28T15:52:39.945Z,22.60
2022-07-28T15:55:07.902Z,22.60
2022-07-28T15:57:37.641Z,22.50
2022-07-28T16:00:07.135Z,22.30
2022-07-28T16:02:35.038Z,22.30
2022-07-28T16:05:02.546Z,22.20
2022-07-28T16:07:31.144Z,22.20
2022-07-28T16:09:58.858Z,22.10
2022-07-28T16:12:26.805Z,22.10
2022-07-28T16:14:54.279Z,22.00
2022-07-28T16:17:22.775Z,21.90
2022-07-28T16:19:51.283Z,21.80
2022-07-28T16:22:19.926Z,21.60
2022-07-28T16:24:47.558Z,21.60
2022-07-28T16:27:15.204Z,21.60
2022-07-28T16:29:43.529Z,21.60
2022-07-28T16:32:11.416Z,21.60
2022-07-28T16:34:39.011Z,21.70
2022-07-28T16:37:06.590Z,21.80
2022-07-28T16:39:34.819Z,21.80
2022-07-28T16:42:03.031Z,21.90
2022-07-28T16:44:31.411Z,21.80
2022-07-28T16:46:59.084Z,21.70
2022-07-28T16:49:26.614Z,21.70
2022-07-28T16:51:55.542Z,21.70
2022-07-28T16:54:23.151Z,21.70
2022-07-28T16:56:51.088Z,21.60
2022-07-28T16:59:18.527Z,21.50
2022-07-28T17:01:46.783Z,21.50
2022-07-28T17:04:16.164Z,21.50
2022-07-28T17:06:44.248Z,21.50
2022-07-28T17:09:12.336Z,21.40
2022-07-28T17:11:41.762Z,21.30
2022-07-28T17:14:10.218Z,21.30
2022-07-28T17:16:38.060Z,21.20
2022-07-28T17:19:05.636Z,21.20
2022-07-28T17:21:33.148Z,21.20
2022-07-28T17:24:00.516Z,21.20
2022-07-28T17:27:32.537Z,21.20
2022-07-28T17:29:16.792Z,21.20
2022-07-28T17:31:44.444Z,21.20
2022-07-28T17:34:12.355Z,21.20
2022-07-28T17:36:41.965Z,21.20
2022-07-28T17:39:09.777Z,21.10
2022-07-28T17:41:37.306Z,21.00
2022-07-28T17:44:05.784Z,21.00
2022-07-28T17:46:35.081Z,21.10
2022-07-28T17:49:05.152Z,21.10
2022-07-28T17:51:32.648Z,21.00
2022-07-28T17:54:00.384Z,21.00
2022-07-28T17:56:29.784Z,21.00
2022-07-28T17:59:00.304Z,20.90
2022-07-28T18:01:29.084Z,20.80
2022-07-28T18:04:00.890Z,20.80
2022-07-28T18:06:40.461Z,20.80
2022-07-28T18:09:11.532Z,20.70
2022-07-28T18:11:55.488Z,20.70
2022-07-28T18:14:27.470Z,20.70
2022-07-28T18:16:55.617Z,20.70
2022-07-28T18:19:23.084Z,20.60
2022-07-28T18:21:50.640Z,20.60
2022-07-28T18:24:18.948Z,20.60
2022-07-28T18:26:46.617Z,20.50
2022-07-28T18:29:14.686Z,20.40
2022-07-28T18:31:46.372Z,20.40
2022-07-28T18:34:15.354Z,20.40
2022-07-28T18:36:43.429Z,20.40
2022-07-28T18:39:10.977Z,20.40
2022-07-28T18:41:46.608Z,20.40
2022-07-28T18:44:19.272Z,20.40
2022-07-28T18:46:47.146Z,20.30
2022-07-28T18:49:15.795Z,20.30
2022-07-28T18:51:44.243Z,20.30
2022-07-28T18:54:18.546Z,20.20
2022-07-28T18:56:46.805Z,20.20
2022-07-28T18:59:14.225Z,20.20
2022-07-28T19:01:41.788Z,20.20
2022-07-28T19:04:09.565Z,20.10
2022-07-28T19:06:37.017Z,20.10
2022-07-28T19:09:05.512Z,20.10
2022-07-28T19:11:33.570Z,20.10
2022-07-28T19:14:01.687Z,20.00
2022-07-28T19:16:29.273Z,20.00
2022-07-28T19:18:56.684Z,19.90
2022-07-28T19:21:24.486Z,19.90
2022-07-28T19:23:53.060Z,19.90
2022-07-28T19:26:21.615Z,19.90
2022-07-28T19:28:49.120Z,19.80
2022-07-28T19:31:16.581Z,19.80
2022-07-28T19:33:44.343Z,19.80
2022-07-28T19:36:15.131Z,19.70
2022-07-28T19:38:43.966Z,19.70
2022-07-28T19:41:13.096Z,19.60
2022-07-28T19:43:40.580Z,19.60
2022-07-28T19:46:08.282Z,19.60
2022-07-28T19:48:35.934Z,19.50
2022-07-28T19:51:03.833Z,19.50
2022-07-28T19:53:35.761Z,19.50
2022-07-28T19:56:08.961Z,19.40
2022-07-28T19:58:36.746Z,19.40
2022-07-28T20:01:05.723Z,19.40
2022-07-28T20:04:04.014Z,19.30
2022-07-28T20:06:24.954Z,19.30
2022-07-28T20:08:54.208Z,19.30
2022-07-28T20:11:21.787Z,19.30
2022-07-28T20:13:49.624Z,19.30
2022-07-28T20:16:17.570Z,19.20
2022-07-28T20:18:45.101Z,19.20
2022-07-28T20:21:12.522Z,19.20
2022-07-28T20:23:41.035Z,19.10
2022-07-28T20:26:10.083Z,19.10
2022-07-28T20:28:38.058Z,19.10
2022-07-28T20:31:07.403Z,19.00
2022-07-28T20:33:34.997Z,19.00
2022-07-28T20:36:02.651Z,19.00
2022-07-28T20:38:30.050Z,18.90
2022-07-28T20:40:57.486Z,18.90
2022-07-28T20:43:24.893Z,18.90
2022-07-28T20:46:05.317Z,18.80
2022-07-28T20:48:33.125Z,18.80
2022-07-28T20:51:00.596Z,18.80
2022-07-28T20:53:28.105Z,18.80
2022-07-28T20:55:55.623Z,18.80
2022-07-28T20:58:23.082Z,18.70
2022-07-28T21:00:51.510Z,18.70
2022-07-28T21:03:19.722Z,18.70
2022-07-28T21:05:47.109Z,18.60
2022-07-28T21:08:16.386Z,18.60
2022-07-28T21:10:45.057Z,18.60
2022-07-28T21:13:12.473Z,18.50
2022-07-28T21:15:39.855Z,18.50
2022-07-28T21:18:07.358Z,18.50
2022-07-28T21:20:34.892Z,18.40
2022-07-28T21:23:02.757Z,18.40
2022-07-28T21:25:35.591Z,18.40
2022-07-28T21:28:21.684Z,18.40
2022-07-28T21:30:49.045Z,18.40
2022-07-28T21:33:17.080Z,18.30
2022-07-28T21:35:50.492Z,18.30
2022-07-28T21:38:18.010Z,18.30
2022-07-28T21:40:45.422Z,18.30
2022-07-28T21:43:12.978Z,18.30
2022-07-28T21:45:41.199Z,18.30
2022-07-28T21:48:08.791Z,18.30
2022-07-28T21:50:37.336Z,18.20
2022-07-28T21:53:04.818Z,18.20
2022-07-28T21:55:32.347Z,18.20
2022-07-28T21:57:59.836Z,18.10
2022-07-28T22:00:27.382Z,18.20
2022-07-28T22:02:55.030Z,18.10
2022-07-28T22:05:22.472Z,18.10
2022-07-28T22:07:49.830Z,18.00
2022-07-28T22:10:18.720Z,18.00
2022-07-28T22:12:46.419Z,18.00
2022-07-28T22:15:13.874Z,18.00
2022-07-28T22:17:41.802Z,17.90
2022-07-28T22:20:10.582Z,17.90
2022-07-28T22:22:38.097Z,17.90
2022-07-28T22:25:06.080Z,17.90
2022-07-28T22:27:33.678Z,17.90
2022-07-28T22:30:01.274Z,17.90
2022-07-28T22:32:29.502Z,17.90
2022-07-28T22:34:58.056Z,17.90
2022-07-28T22:37:25.727Z,17.80
2022-07-28T22:39:53.351Z,17.90
2022-07-28T22:42:20.826Z,17.90
2022-07-28T22:44:48.637Z,17.90
2022-07-28T22:47:16.186Z,17.80
2022-07-28T22:49:43.594Z,17.90
2022-07-28T22:52:11.106Z,17.80
2022-07-28T22:54:39.731Z,17.80
2022-07-28T22:57:07.395Z,17.80
2022-07-28T22:59:38.497Z,17.80
2022-07-28T23:02:07.764Z,17.80
2022-07-28T23:04:37.320Z,17.80
2022-07-28T23:07:05.955Z,17.80
2022-07-28T23:09:40.043Z,17.80
2022-07-28T23:12:08.708Z,17.80
2022-07-28T23:14:36.511Z,17.80
2022-07-28T23:17:04.551Z,17.90
2022-07-28T23:19:32.023Z,17.80
2022-07-28T23:21:59.505Z,17.80
2022-07-28T23:24:27.042Z,17.80
2022-07-28T23:26:54.582Z,17.80
2022-07-28T23:29:22.395Z,17.80
2022-07-28T23:31:49.890Z,17.70
2022-07-28T23:34:17.699Z,17.70
2022-07-28T23:36:45.481Z,17.60
2022-07-28T23:39:14.256Z,17.60
2022-07-28T23:41:41.672Z,17.60
2022-07-28T23:44:09.242Z,17.60
2022-07-28T23:46:36.740Z,17.60
2022-07-28T23:49:05.752Z,17.60
2022-07-28T23:51:46.796Z,17.60
2022-07-28T23:54:16.776Z,17.60
2022-07-28T23:56:45.015Z,17.60
2022-07-28T23:59:14.459Z,17.50
